North Leverett, Massachusetts
Current Conditions -  °F | °C
As of 5:52 PM on Wednesday 22 Oct 2014 (Local Time) from KORE Reporting Station
Light Rain Light Rain  
Wind Chill: 50°   Ceiling: 1700
Heat Index: 50°   Visibility: 8mi
Dew Point: 46°   Wind: 15mph
Humidity: 86%   Direction: 20°NNE
Pressure: 29.93"   Gusts: NA
Location:  42.4786°N, 72.4839°W
Report Text: KORE 222152Z AUTO 02013KT 8SM -RA OVC017 10/08 A2993 RMK AO2 RAE2058B38 SLP139 P0001 T01000078
Loading
Personal Weather Stations






























Interactive Weather Map
Tropical Storm Tracking
New forecast layout! Learn more

10-Day Weather Forecast

Advertisements
Track Severe Weather on mobile